Terminal Aerodrome Forecast
Issued by NWS Cleveland, OH

Home | Current Version | Previous Version | Graphics & Text | Print | Product List | Glossary On
Versions: 1 2 3 4 5 6 7 8 9 10 11 12 13 14 15 16 17 18 19 20 21
000
FTUS41 KCLE 281000 AAC
TAFERI
TAF AMD
KERI 281011Z 2810/2906 31010KT P6SM -SHRA VCTS BKN013CB
      TEMPO 2810/2812 31010G18KT 3SM -TSRA BR OVC008CB
     FM281800 34014G22KT P6SM VCSH OVC015
     FM290000 32010KT P6SM BKN025=

USA.gov is the U.S. government's official web portal to all federal, state and local government web resources and services.